Time;durP1;ratioP1;P1;durP2;ratioP2;P2;SDS_P1;SDS_P2;PMS_P1;PMS_P2;Temp;Humidity;BMP_temperature;BMP_pressure;BME280_temperature;BME280_humidity;BME280_pressure;Samples;Min_cycle;Max_cycle;Signal;HPM_P1;HPM_P2
2022/01/21 00:02:24;;;;;;;8.23;2.15;;;8.50;81.60;;;;;;5013919;28;20488;-79
2022/01/21 00:04:50;;;;;;;7.20;1.85;;;8.50;81.60;;;;;;5014105;28;20022;-80
2022/01/21 00:07:15;;;;;;;7.72;1.70;;;8.50;81.60;;;;;;5014179;28;20025;-80
2022/01/21 00:09:46;;;;;;;8.63;1.90;;;8.50;81.70;;;;;;5016196;28;20079;-80
2022/01/21 00:12:11;;;;;;;9.43;2.13;;;8.50;81.80;;;;;;5017370;28;20025;-79
2022/01/21 00:14:37;;;;;;;7.88;1.73;;;8.50;81.90;;;;;;5017737;28;20532;-78
2022/01/21 00:17:03;;;;;;;7.30;1.60;;;8.50;81.90;;;;;;5017593;28;20516;-79
2022/01/21 00:19:36;;;;;;;6.32;2.20;;;8.50;81.90;;;;;;5017903;28;20028;-79
2022/01/21 00:30:16;;;;;;;7.63;1.85;;;8.50;82.00;;;;;;5035647;28;20037;-80
2022/01/21 00:32:47;;;;;;;8.50;1.67;;;8.50;82.10;;;;;;5016993;28;20120;-78
2022/01/21 00:35:14;;;;;;;8.02;1.67;;;8.60;82.20;;;;;;5017300;28;20062;-80
2022/01/21 00:37:40;;;;;;;7.78;1.83;;;8.50;82.20;;;;;;5017252;28;20029;-80
2022/01/21 00:40:08;;;;;;;7.32;1.98;;;8.50;82.20;;;;;;5034997;28;20022;-80
2022/01/21 00:45:03;;;;;;;8.40;1.83;;;8.50;82.20;;;;;;5035092;28;20480;-81
2022/01/21 00:47:29;;;;;;;8.35;1.83;;;8.50;82.20;;;;;;5017037;28;20476;-81
2022/01/21 00:49:56;;;;;;;7.30;1.50;;;8.50;82.20;;;;;;5034731;28;20499;-80
2022/01/21 00:52:22;;;;;;;7.65;2.15;;;8.50;82.70;;;;;;5016571;28;20053;-80
2022/01/21 00:54:48;;;;;;;6.72;1.75;;;8.50;82.30;;;;;;5016876;28;20508;-80
2022/01/21 00:57:13;;;;;;;8.02;1.60;;;8.50;82.20;;;;;;5016783;28;20022;-83
2022/01/21 00:59:39;;;;;;;8.18;2.00;;;8.50;82.20;;;;;;5034817;28;20022;-80
2022/01/21 01:02:05;;;;;;;5.85;1.50;;;8.50;82.30;;;;;;5016403;28;20085;-81
2022/01/21 01:04:32;;;;;;;6.40;1.70;;;8.50;82.30;;;;;;5034186;28;20453;-81
2022/01/21 01:06:57;;;;;;;6.13;1.52;;;8.50;82.20;;;;;;5016774;28;20108;-81
2022/01/21 01:09:23;;;;;;;7.38;1.80;;;8.50;82.20;;;;;;5016583;28;20053;-80
2022/01/21 01:12:11;;;;;;;6.75;1.88;;;8.50;82.30;;;;;;5016194;28;20437;-79
2022/01/21 01:20:08;;;;;;;6.53;1.65;;;8.50;82.10;;;;;;5033624;28;20028;-80
2022/01/21 01:23:02;;;;;;;8.05;1.88;;;8.50;82.00;;;;;;5016021;28;20049;-80
2022/01/21 01:28:12;;;;;;;8.10;1.98;;;8.50;82.00;;;;;;5034354;28;20132;-80
2022/01/21 01:30:37;;;;;;;7.10;1.75;;;8.50;82.00;;;;;;5015913;28;20061;-82
2022/01/21 01:33:07;;;;;;;6.95;2.00;;;8.50;82.00;;;;;;5016211;28;20032;-81
2022/01/21 01:35:33;;;;;;;7.32;1.80;;;8.50;82.00;;;;;;5016142;28;20404;-80
2022/01/21 01:40:36;;;;;;;7.00;1.83;;;8.50;82.00;;;;;;5034150;28;20075;-79
2022/01/21 01:50:52;;;;;;;6.07;1.65;;;8.50;82.00;;;;;;5033507;28;20021;-80
2022/01/21 01:53:20;;;;;;;8.52;1.85;;;8.50;82.50;;;;;;5015831;28;20061;-80
2022/01/21 01:55:46;;;;;;;5.72;1.73;;;8.50;82.10;;;;;;5015726;28;20032;-80
2022/01/21 01:58:14;;;;;;;9.20;1.98;;;8.50;82.10;;;;;;5033368;28;20029;-80
2022/01/21 02:00:43;;;;;;;7.65;2.10;;;8.50;82.00;;;;;;5015204;28;20030;-78
2022/01/21 02:03:12;;;;;;;8.30;1.80;;;8.50;82.00;;;;;;5015515;28;20021;-80
2022/01/21 02:05:37;;;;;;;6.22;1.50;;;8.50;82.10;;;;;;5015406;28;20025;-80
2022/01/21 02:08:03;;;;;;;8.02;1.85;;;8.50;82.00;;;;;;5015667;28;20070;-80
2022/01/21 02:10:29;;;;;;;7.93;1.77;;;8.50;82.00;;;;;;5015517;28;20021;-80
2022/01/21 02:13:05;;;;;;;5.40;1.85;;;8.50;82.10;;;;;;5015322;28;20018;-80
2022/01/21 02:15:34;;;;;;;6.95;1.60;;;8.50;82.10;;;;;;5033102;28;20075;-79
2022/01/21 02:23:28;;;;;;;6.15;1.92;;;8.50;82.10;;;;;;5032938;28;20511;-79
2022/01/21 02:25:54;;;;;;;7.55;1.55;;;8.50;82.10;;;;;;5032901;28;20029;-79
2022/01/21 02:28:20;;;;;;;7.40;1.67;;;8.50;82.10;;;;;;5015221;28;20503;-80
2022/01/21 02:30:56;;;;;;;8.23;1.50;;;8.50;82.00;;;;;;5032659;28;20013;-80
2022/01/21 02:33:23;;;;;;;6.75;1.73;;;8.40;82.00;;;;;;5014793;28;20026;-79
2022/01/21 02:35:49;;;;;;;6.50;2.00;;;8.50;82.10;;;;;;5032716;28;20029;-80
2022/01/21 02:38:15;;;;;;;6.43;1.73;;;8.50;82.10;;;;;;5015157;28;20041;-79
2022/01/21 02:40:42;;;;;;;6.45;2.05;;;8.50;82.10;;;;;;5014823;28;20444;-79
2022/01/21 02:43:07;;;;;;;8.68;1.88;;;8.50;82.10;;;;;;5014914;28;20029;-80
2022/01/21 02:45:33;;;;;;;8.43;1.33;;;8.50;82.20;;;;;;5014920;28;20017;-80
2022/01/21 02:48:00;;;;;;;6.57;1.75;;;8.50;82.10;;;;;;5014994;28;20053;-80
2022/01/21 02:50:26;;;;;;;8.63;1.80;;;8.50;82.10;;;;;;5014759;28;20025;-79
2022/01/21 02:53:11;;;;;;;6.43;1.40;;;8.50;82.20;;;;;;5014562;28;20032;-80
2022/01/21 02:55:36;;;;;;;4.93;1.58;;;8.50;82.20;;;;;;5032478;28;20018;-81
2022/01/21 02:58:02;;;;;;;7.40;1.80;;;8.50;82.10;;;;;;5014903;28;20027;-80
2022/01/21 03:00:28;;;;;;;6.93;1.67;;;8.50;82.10;;;;;;5014539;28;20032;-80
2022/01/21 03:03:02;;;;;;;8.40;1.50;;;8.50;82.10;;;;;;5014449;28;20128;-80
2022/01/21 03:05:27;;;;;;;6.00;1.33;;;8.40;82.50;;;;;;5010849;28;20104;-80
2022/01/21 03:07:53;;;;;;;7.47;1.70;;;8.50;82.00;;;;;;5032428;28;20045;-80
2022/01/21 03:10:18;;;;;;;5.00;1.50;;;8.50;82.00;;;;;;5014765;28;20449;-81
2022/01/21 03:12:45;;;;;;;5.40;1.48;;;8.50;82.00;;;;;;5014359;28;20112;-80
2022/01/21 03:15:10;;;;;;;3.63;1.35;;;8.50;82.00;;;;;;5014873;28;20033;-80
2022/01/21 03:17:36;;;;;;;4.97;1.45;;;8.40;81.90;;;;;;5014653;28;20026;-80
2022/01/21 03:20:03;;;;;;;7.40;2.08;;;8.50;82.00;;;;;;5032231;28;20026;-80
2022/01/21 03:22:28;;;;;;;7.30;1.55;;;8.40;81.80;;;;;;5014239;28;20099;-80
2022/01/21 03:24:54;;;;;;;5.35;1.52;;;8.40;81.80;;;;;;5014550;28;20499;-80
2022/01/21 03:27:19;;;;;;;7.10;1.52;;;8.50;81.80;;;;;;5014519;28;20487;-78
2022/01/21 03:29:45;;;;;;;7.95;1.83;;;8.50;81.80;;;;;;5014497;28;20075;-82
2022/01/21 03:32:11;;;;;;;5.38;1.70;;;8.50;81.90;;;;;;5031948;28;20076;-80
2022/01/21 03:34:37;;;;;;;5.28;1.50;;;8.40;81.90;;;;;;5014515;28;20064;-82
2022/01/21 03:37:03;;;;;;;6.07;1.77;;;8.50;81.90;;;;;;5014582;28;20075;-80
2022/01/21 03:39:28;;;;;;;6.15;1.58;;;8.50;81.90;;;;;;5014409;28;20018;-80
2022/01/21 03:41:54;;;;;;;7.10;1.70;;;8.40;81.90;;;;;;5014241;28;20036;-80
2022/01/21 03:44:19;;;;;;;6.90;1.70;;;8.40;81.80;;;;;;5033970;28;20025;-80
2022/01/21 03:46:46;;;;;;;10.18;2.17;;;8.40;81.90;;;;;;5018288;28;20022;-80
2022/01/21 03:49:12;;;;;;;6.60;1.80;;;8.50;82.00;;;;;;5018015;28;20083;-77
2022/01/21 03:51:37;;;;;;;7.07;1.60;;;8.40;81.80;;;;;;5017709;28;20033;-80
2022/01/21 03:54:03;;;;;;;7.55;1.70;;;8.50;81.80;;;;;;5018294;28;20018;-81
2022/01/21 03:56:29;;;;;;;6.68;1.67;;;8.40;81.70;;;;;;5017972;28;20030;-80
2022/01/21 03:58:54;;;;;;;4.97;1.50;;;8.40;81.70;;;;;;5017977;28;20470;-80
2022/01/21 04:01:23;;;;;;;6.45;1.88;;;8.40;81.70;;;;;;5051589;23;20028;-78
2022/01/21 04:03:48;;;;;;;6.75;1.77;;;8.40;81.80;;;;;;5034622;28;20033;-79
2022/01/21 04:06:14;;;;;;;5.93;1.70;;;8.50;81.90;;;;;;5017136;28;20024;-78
2022/01/21 04:08:40;;;;;;;6.40;1.40;;;8.50;81.90;;;;;;5017967;28;20049;-78
2022/01/21 04:11:05;;;;;;;6.10;1.42;;;8.40;81.80;;;;;;5035050;28;20455;-77
2022/01/21 04:13:31;;;;;;;6.80;1.80;;;8.50;82.00;;;;;;5035363;28;20104;-77
2022/01/21 04:15:58;;;;;;;7.32;1.70;;;8.50;82.00;;;;;;5017804;28;20033;-77
2022/01/21 04:18:24;;;;;;;6.28;1.40;;;8.50;82.00;;;;;;5035514;28;20032;-78
2022/01/21 04:20:50;;;;;;;7.30;1.90;;;8.50;82.00;;;;;;5017415;28;20150;-78
2022/01/21 04:23:18;;;;;;;7.35;1.63;;;8.50;82.10;;;;;;5035078;28;20022;-78
2022/01/21 04:25:44;;;;;;;6.25;1.70;;;8.40;82.10;;;;;;5035203;28;20503;-78
2022/01/21 04:28:10;;;;;;;6.82;1.65;;;8.40;82.10;;;;;;5035121;28;20029;-78
2022/01/21 04:30:36;;;;;;;6.65;1.88;;;8.50;82.20;;;;;;5017323;28;20026;-78
2022/01/21 04:33:03;;;;;;;7.68;1.90;;;8.40;82.20;;;;;;5017219;28;20029;-79
2022/01/21 04:35:29;;;;;;;4.93;1.40;;;8.50;82.20;;;;;;5017407;28;20226;-79
2022/01/21 04:37:59;;;;;;;6.38;1.45;;;8.40;82.10;;;;;;5017291;28;20022;-78
2022/01/21 04:40:29;;;;;;;4.57;1.30;;;8.40;82.20;;;;;;5017279;28;20485;-78
2022/01/21 04:48:25;;;;;;;8.40;2.05;;;8.50;82.20;;;;;;5034916;28;20037;-77
2022/01/21 04:50:56;;;;;;;7.07;2.10;;;8.40;82.20;;;;;;5016869;28;20030;-78
2022/01/21 04:53:24;;;;;;;6.78;1.67;;;8.40;82.20;;;;;;5034682;28;20017;-78
2022/01/21 04:55:50;;;;;;;5.95;1.60;;;8.40;82.10;;;;;;5016740;28;20041;-78
2022/01/21 04:58:16;;;;;;;6.43;1.75;;;8.40;82.10;;;;;;5034650;28;20396;-78
2022/01/21 05:00:43;;;;;;;8.27;2.05;;;8.40;82.10;;;;;;5017180;28;20026;-77
2022/01/21 05:03:10;;;;;;;6.35;1.80;;;8.40;82.10;;;;;;5016667;28;20040;-75
2022/01/21 05:05:36;;;;;;;4.97;1.60;;;8.40;82.10;;;;;;5025813;28;20029;-76
2022/01/21 05:08:05;;;;;;;7.72;1.90;;;8.40;82.10;;;;;;5014979;28;20480;-76
2022/01/21 05:10:31;;;;;;;6.60;1.60;;;8.40;82.10;;;;;;5014020;28;20032;-76
2022/01/21 05:12:57;;;;;;;7.55;1.85;;;8.50;82.20;;;;;;5032843;28;20116;-76
2022/01/21 05:18:14;;;;;;;9.10;2.17;;;8.40;82.20;;;;;;4992175;28;20039;-77
2022/01/21 05:20:39;;;;;;;9.48;2.22;;;8.50;82.30;;;;;;4994478;28;20026;-75
2022/01/21 05:23:05;;;;;;;7.97;1.98;;;8.50;82.30;;;;;;5017945;28;20091;-76
2022/01/21 05:25:30;;;;;;;8.25;2.08;;;8.40;82.30;;;;;;5014510;28;20091;-76
2022/01/21 05:27:58;;;;;;;9.32;2.03;;;8.40;82.30;;;;;;5031816;28;20108;-76
2022/01/21 05:30:24;;;;;;;8.90;2.00;;;8.40;82.30;;;;;;5032272;28;20073;-77
2022/01/21 05:32:50;;;;;;;7.72;2.10;;;8.40;82.30;;;;;;5013468;28;20033;-74
2022/01/21 05:35:15;;;;;;;8.23;2.38;;;8.40;82.20;;;;;;5014479;28;20025;-76
2022/01/21 05:37:41;;;;;;;9.23;2.30;;;8.40;82.20;;;;;;5031713;28;20030;-78
2022/01/21 05:40:13;;;;;;;7.03;2.22;;;8.40;82.20;;;;;;5014605;28;20032;-76
2022/01/21 05:42:39;;;;;;;9.05;2.78;;;8.40;82.20;;;;;;5031618;28;20404;-76
2022/01/21 05:47:34;;;;;;;10.70;2.72;;;8.30;82.00;;;;;;5032386;28;20022;-75
2022/01/21 05:50:00;;;;;;;8.65;2.28;;;8.40;82.10;;;;;;5014935;28;20040;-77
2022/01/21 05:52:45;;;;;;;8.38;2.63;;;8.40;82.20;;;;;;5015247;28;20025;-77
2022/01/21 05:55:11;;;;;;;10.15;2.70;;;8.40;82.40;;;;;;5015029;28;20623;-76
2022/01/21 05:57:37;;;;;;;8.98;2.45;;;8.30;82.20;;;;;;5015941;28;20060;-79
2022/01/21 06:00:03;;;;;;;8.10;2.15;;;8.40;82.20;;;;;;5015686;28;20028;-79
2022/01/21 06:02:30;;;;;;;9.25;3.00;;;8.40;82.30;;;;;;5013797;28;20511;-77
2022/01/21 06:04:55;;;;;;;26.92;3.80;;;8.40;82.20;;;;;;5016486;28;20063;-76
2022/01/21 06:07:21;;;;;;;19.83;3.55;;;8.40;82.30;;;;;;5014830;28;20033;-78
2022/01/21 06:09:47;;;;;;;16.33;2.85;;;8.40;82.30;;;;;;5014720;28;20029;-78
2022/01/21 06:12:12;;;;;;;11.85;2.78;;;8.40;82.20;;;;;;5030928;28;20033;-75
2022/01/21 06:14:38;;;;;;;11.80;2.53;;;8.40;82.20;;;;;;5013809;28;20117;-78
2022/01/21 06:17:04;;;;;;;18.83;3.15;;;8.40;82.30;;;;;;5014301;28;20029;-76
2022/01/21 06:19:30;;;;;;;13.18;3.13;;;8.30;82.30;;;;;;5013485;28;20727;-76
2022/01/21 06:21:55;;;;;;;13.57;2.85;;;8.30;82.30;;;;;;5011522;28;20075;-77
2022/01/21 06:24:21;;;;;;;12.52;2.47;;;8.40;82.30;;;;;;5011235;28;20099;-75
2022/01/21 06:26:47;;;;;;;14.32;3.03;;;8.40;82.30;;;;;;5029815;28;20433;-77
2022/01/21 06:29:13;;;;;;;11.90;2.65;;;8.40;82.20;;;;;;5011588;28;20032;-77
2022/01/21 06:31:38;;;;;;;11.95;2.78;;;8.40;82.20;;;;;;5010749;28;20321;-75
2022/01/21 06:34:04;;;;;;;10.90;3.10;;;8.40;82.10;;;;;;5011271;28;20084;-77
2022/01/21 06:36:29;;;;;;;10.25;2.70;;;8.40;82.10;;;;;;5028824;28;20033;-77
2022/01/21 06:38:55;;;;;;;9.80;2.35;;;8.40;82.20;;;;;;5011521;28;20480;-78
2022/01/21 06:41:21;;;;;;;8.93;2.65;;;8.40;82.30;;;;;;5028281;28;20120;-76
2022/01/21 06:43:47;;;;;;;10.13;3.60;;;8.40;82.30;;;;;;5011612;28;20036;-77
2022/01/21 06:46:12;;;;;;;9.27;2.80;;;8.40;82.30;;;;;;5013222;28;20025;-77
2022/01/21 06:48:38;;;;;;;10.13;2.42;;;8.40;82.40;;;;;;5011166;28;20036;-77
2022/01/21 06:51:04;;;;;;;9.02;2.50;;;8.40;82.40;;;;;;5028255;28;20382;-77
2022/01/21 06:53:29;;;;;;;8.18;2.58;;;8.40;82.30;;;;;;5011367;28;20480;-77
2022/01/21 06:55:55;;;;;;;10.48;2.90;;;8.40;82.40;;;;;;5011351;28;20492;-77
2022/01/21 06:58:21;;;;;;;8.75;2.78;;;8.40;82.40;;;;;;5028448;28;20085;-77
2022/01/21 07:00:46;;;;;;;9.05;2.67;;;8.40;82.30;;;;;;5010760;28;20026;-79
2022/01/21 07:03:12;;;;;;;9.00;2.70;;;8.40;82.30;;;;;;5010435;28;20037;-76
2022/01/21 07:05:38;;;;;;;7.68;2.75;;;8.40;82.30;;;;;;5010850;28;20021;-77
2022/01/21 07:08:03;;;;;;;9.00;2.65;;;8.40;82.30;;;;;;5028387;28;20033;-76
2022/01/21 07:10:30;;;;;;;6.95;2.42;;;8.40;82.40;;;;;;5010551;28;20116;-77
2022/01/21 07:12:57;;;;;;;8.35;2.60;;;8.40;82.40;;;;;;5010423;28;20261;-76
2022/01/21 07:15:23;;;;;;;11.70;2.95;;;8.40;82.30;;;;;;5028434;28;20032;-78
2022/01/21 07:17:52;;;;;;;11.52;2.95;;;8.40;82.40;;;;;;5028287;28;20407;-75
2022/01/21 07:20:18;;;;;;;8.75;2.60;;;8.40;82.30;;;;;;5014171;28;20401;-76
2022/01/21 07:22:44;;;;;;;8.68;2.60;;;8.40;82.40;;;;;;5014498;28;20040;-76
2022/01/21 07:25:10;;;;;;;10.23;2.60;;;8.40;82.50;;;;;;5014400;28;20033;-76
2022/01/21 07:27:35;;;;;;;9.80;2.60;;;8.40;82.20;;;;;;5014350;28;20034;-76
2022/01/21 07:30:04;;;;;;;10.27;2.70;;;8.40;82.20;;;;;;5014456;28;20036;-75
2022/01/21 07:32:29;;;;;;;8.63;2.28;;;8.40;82.30;;;;;;5013925;28;20555;-76
2022/01/21 07:34:55;;;;;;;11.35;2.92;;;8.40;82.40;;;;;;5014124;28;20049;-75
2022/01/21 07:37:20;;;;;;;8.45;2.47;;;8.40;82.40;;;;;;5014250;28;20030;-77
2022/01/21 07:39:46;;;;;;;7.97;2.75;;;8.40;82.50;;;;;;5031504;28;20710;-75
2022/01/21 07:42:11;;;;;;;8.55;2.30;;;8.40;82.50;;;;;;5031388;28;20029;-76
2022/01/21 07:44:37;;;;;;;8.25;2.20;;;8.40;82.50;;;;;;5014207;28;20040;-76
2022/01/21 07:47:04;;;;;;;7.57;2.45;;;8.40;83.00;;;;;;5031570;28;20036;-75
2022/01/21 07:49:30;;;;;;;7.80;2.30;;;8.40;82.40;;;;;;5031557;28;20377;-74
2022/01/21 07:51:55;;;;;;;8.23;2.70;;;8.40;82.40;;;;;;5013886;28;20018;-77
2022/01/21 07:54:21;;;;;;;8.05;2.25;;;8.40;82.40;;;;;;5013881;28;20503;-76
2022/01/21 07:56:47;;;;;;;8.75;2.33;;;8.40;82.40;;;;;;5013852;28;20018;-77
2022/01/21 07:59:14;;;;;;;7.63;2.35;;;8.40;82.40;;;;;;5013929;28;20030;-76
2022/01/21 08:01:40;;;;;;;5.78;2.20;;;8.40;82.40;;;;;;5030954;28;20056;-76
2022/01/21 08:04:06;;;;;;;6.28;2.33;;;8.40;82.50;;;;;;5013625;28;20029;-76
2022/01/21 08:06:32;;;;;;;8.43;2.72;;;8.40;82.50;;;;;;5013757;28;20036;-77
2022/01/21 08:08:59;;;;;;;7.32;2.38;;;8.40;82.50;;;;;;5013671;28;20048;-74
2022/01/21 08:11:25;;;;;;;6.78;2.20;;;8.40;82.50;;;;;;5031102;28;20025;-76
2022/01/21 08:13:51;;;;;;;10.35;3.17;;;8.40;82.60;;;;;;5030746;28;20025;-76
2022/01/21 08:16:17;;;;;;;6.05;2.28;;;8.40;82.60;;;;;;5013610;28;20025;-76
2022/01/21 08:18:43;;;;;;;5.65;2.25;;;8.40;82.70;;;;;;5013230;28;20047;-74
2022/01/21 08:21:09;;;;;;;7.93;2.65;;;8.40;82.70;;;;;;5013117;28;20025;-77
2022/01/21 08:23:34;;;;;;;6.68;2.20;;;8.40;82.70;;;;;;5013614;28;20025;-74
2022/01/21 08:26:01;;;;;;;7.93;2.90;;;8.40;82.60;;;;;;5031287;28;20116;-76
2022/01/21 08:28:27;;;;;;;6.18;2.55;;;8.40;82.60;;;;;;5013114;28;20407;-75
2022/01/21 08:30:53;;;;;;;7.03;3.03;;;8.40;82.70;;;;;;5012413;28;20030;-75
2022/01/21 08:33:18;;;;;;;7.07;2.42;;;8.40;82.70;;;;;;5030704;28;20053;-74
2022/01/21 08:35:44;;;;;;;6.00;2.33;;;8.40;82.70;;;;;;5013310;28;20118;-76
2022/01/21 08:38:09;;;;;;;7.70;2.70;;;8.40;82.70;;;;;;5031056;28;20435;-76
2022/01/21 08:40:35;;;;;;;6.63;2.42;;;8.40;82.70;;;;;;5030237;28;20116;-76
2022/01/21 08:43:01;;;;;;;6.97;2.50;;;8.40;82.70;;;;;;5012898;28;20036;-76
2022/01/21 08:45:29;;;;;;;5.72;2.38;;;8.40;82.70;;;;;;5013116;28;20061;-77
2022/01/21 08:47:54;;;;;;;6.88;2.10;;;8.40;82.70;;;;;;5013010;28;20064;-74
2022/01/21 08:50:21;;;;;;;8.07;2.47;;;8.40;82.70;;;;;;5013167;28;20057;-78
2022/01/21 08:52:48;;;;;;;4.85;2.10;;;8.40;82.70;;;;;;5030325;28;20033;-75
2022/01/21 08:55:16;;;;;;;7.40;2.42;;;8.40;82.60;;;;;;5012935;28;20033;-76
2022/01/21 08:57:43;;;;;;;6.50;2.38;;;8.50;82.70;;;;;;5012605;28;20017;-77
2022/01/21 09:00:13;;;;;;;7.57;2.38;;;8.40;82.60;;;;;;5012548;28;20370;-75
2022/01/21 09:02:39;;;;;;;7.95;2.40;;;8.40;82.60;;;;;;5012283;28;20076;-78
2022/01/21 09:05:04;;;;;;;6.20;2.10;;;8.40;82.60;;;;;;5012477;28;20663;-77
2022/01/21 09:07:30;;;;;;;7.00;2.33;;;8.40;82.60;;;;;;5012552;28;20116;-77
2022/01/21 09:09:56;;;;;;;7.75;2.50;;;8.40;82.60;;;;;;5030227;28;20037;-75
2022/01/21 09:12:21;;;;;;;7.43;2.22;;;8.40;82.60;;;;;;5012048;28;20406;-76
2022/01/21 09:14:47;;;;;;;6.20;1.95;;;8.40;82.60;;;;;;5030160;28;20026;-75
2022/01/21 09:17:13;;;;;;;5.80;2.03;;;8.40;82.60;;;;;;5012575;28;20022;-76
2022/01/21 09:19:39;;;;;;;6.65;2.10;;;8.40;82.60;;;;;;5012606;28;20056;-74
2022/01/21 09:22:05;;;;;;;7.43;2.25;;;8.40;82.60;;;;;;5012055;28;20060;-76
2022/01/21 09:24:33;;;;;;;7.25;2.22;;;8.50;82.60;;;;;;5012273;28;20051;-75
2022/01/21 09:26:59;;;;;;;7.47;2.20;;;8.50;82.50;;;;;;5012292;28;20060;-76
2022/01/21 09:29:25;;;;;;;6.45;2.42;;;8.50;82.30;;;;;;5030134;28;20094;-76
2022/01/21 09:31:51;;;;;;;9.88;2.28;;;8.60;82.30;;;;;;5029495;28;20057;-76
2022/01/21 09:34:16;;;;;;;5.30;2.10;;;8.70;82.30;;;;;;5029412;28;20057;-76
2022/01/21 09:36:42;;;;;;;10.35;2.75;;;8.80;82.10;;;;;;5029921;28;20025;-76
2022/01/21 09:39:08;;;;;;;6.55;2.15;;;8.90;81.50;;;;;;5011528;28;20025;-74
2022/01/21 09:41:35;;;;;;;7.95;2.30;;;8.90;81.50;;;;;;5028750;28;20022;-76
2022/01/21 09:44:03;;;;;;;6.93;2.05;;;8.90;81.20;;;;;;5011811;28;20034;-75
2022/01/21 09:46:35;;;;;;;6.35;2.00;;;8.90;81.00;;;;;;5029716;28;20021;-75
2022/01/21 09:49:46;;;;;;;6.55;2.10;;;8.70;81.00;;;;;;5029447;28;20160;-76
2022/01/21 09:51:56;;;;;;;5.78;2.08;;;8.80;81.10;;;;;;5016068;28;20456;-76
2022/01/21 09:54:23;;;;;;;5.63;2.30;;;8.80;81.20;;;;;;5029533;28;20021;-76
2022/01/21 09:56:49;;;;;;;5.45;1.95;;;8.80;81.40;;;;;;5011633;28;20485;-76
2022/01/21 09:59:17;;;;;;;6.43;1.90;;;8.70;81.50;;;;;;5011773;28;20022;-76
2022/01/21 10:01:44;;;;;;;6.18;1.88;;;8.70;81.60;;;;;;5028790;28;20041;-75
2022/01/21 10:04:11;;;;;;;6.30;2.20;;;8.70;81.80;;;;;;5029233;28;20041;-76
2022/01/21 10:06:37;;;;;;;5.10;1.70;;;8.70;81.70;;;;;;5028942;28;20025;-74
2022/01/21 10:09:03;;;;;;;7.10;1.98;;;8.70;81.80;;;;;;5011833;28;20079;-76
2022/01/21 10:11:29;;;;;;;6.18;2.00;;;8.70;81.90;;;;;;5028350;28;20032;-75
2022/01/21 10:13:55;;;;;;;4.90;1.80;;;8.80;81.90;;;;;;5011350;28;20457;-77
2022/01/21 10:16:21;;;;;;;6.30;2.03;;;8.90;81.70;;;;;;5028730;28;20425;-77
2022/01/21 10:19:07;;;;;;;5.32;1.63;;;8.90;81.50;;;;;;5011441;28;20060;-77
2022/01/21 10:21:35;;;;;;;5.28;1.70;;;9.00;81.20;;;;;;5028642;28;20083;-76
2022/01/21 10:24:11;;;;;;;7.97;2.15;;;9.10;81.00;;;;;;5028944;28;20033;-76
2022/01/21 10:26:53;;;;;;;6.15;1.88;;;9.10;80.80;;;;;;5029018;28;20053;-77
2022/01/21 10:29:19;;;;;;;8.38;1.98;;;9.20;80.80;;;;;;5028684;28;20076;-77
2022/01/21 10:32:00;;;;;;;6.95;2.25;;;9.20;80.60;;;;;;5027838;28;20025;-77
2022/01/21 10:34:41;;;;;;;5.93;1.65;;;9.30;80.50;;;;;;5011222;28;20025;-77
2022/01/21 10:37:31;;;;;;;5.88;1.80;;;9.30;80.40;;;;;;5011260;28;20116;-76
2022/01/21 10:40:09;;;;;;;6.53;1.95;;;9.40;80.40;;;;;;5010918;28;20436;-76
2022/01/21 10:42:36;;;;;;;7.15;2.15;;;9.30;80.30;;;;;;5010591;28;20401;-76
2022/01/21 10:45:04;;;;;;;7.18;2.70;;;9.20;80.20;;;;;;5028908;28;20091;-76
2022/01/21 10:47:32;;;;;;;5.38;1.75;;;9.20;80.30;;;;;;5028581;28;20132;-76
2022/01/21 10:50:08;;;;;;;6.07;2.00;;;9.10;80.50;;;;;;5010976;28;20484;-75
2022/01/21 10:52:46;;;;;;;5.18;1.67;;;9.10;80.60;;;;;;5010537;28;20036;-76
2022/01/21 10:55:34;;;;;;;6.10;1.77;;;9.10;80.90;;;;;;5010821;28;20021;-76
2022/01/21 10:58:12;;;;;;;6.40;1.98;;;9.00;80.80;;;;;;5010642;28;20033;-76
2022/01/21 11:00:57;;;;;;;8.23;2.15;;;9.00;81.00;;;;;;5028396;28;20491;-74
2022/01/21 11:03:22;;;;;;;6.47;1.77;;;9.00;81.00;;;;;;5010641;28;20036;-76
2022/01/21 11:05:50;;;;;;;4.78;1.70;;;9.00;81.10;;;;;;5010737;28;20030;-74
2022/01/21 11:08:16;;;;;;;7.40;1.98;;;8.90;81.20;;;;;;5010606;28;20128;-77
2022/01/21 11:10:50;;;;;;;6.40;1.67;;;8.90;81.30;;;;;;5010398;28;20018;-76
2022/01/21 11:13:18;;;;;;;4.72;1.40;;;8.90;81.40;;;;;;5010571;28;20029;-78
2022/01/21 11:15:55;;;;;;;5.72;2.00;;;8.90;81.50;;;;;;5010954;28;20021;-77
2022/01/21 11:18:22;;;;;;;7.43;2.05;;;8.90;81.60;;;;;;5028233;28;20101;-75
2022/01/21 11:21:05;;;;;;;6.65;1.80;;;8.90;81.70;;;;;;5010514;28;20467;-76
2022/01/21 11:23:32;;;;;;;6.22;1.73;;;8.80;81.80;;;;;;5028245;28;20038;-76
2022/01/21 11:26:00;;;;;;;6.20;1.63;;;8.80;81.90;;;;;;5010553;28;20033;-76
2022/01/21 11:28:40;;;;;;;6.13;1.58;;;8.80;81.90;;;;;;5010600;28;20025;-76
2022/01/21 11:31:07;;;;;;;7.22;2.05;;;8.80;82.10;;;;;;5009873;28;20032;-76
2022/01/21 11:33:33;;;;;;;9.18;2.10;;;8.80;82.10;;;;;;5028337;28;20036;-77
2022/01/21 11:36:00;;;;;;;7.00;1.85;;;8.80;82.20;;;;;;5010499;28;20026;-77
2022/01/21 11:38:26;;;;;;;6.60;1.67;;;8.80;82.30;;;;;;5010370;28;20037;-78
2022/01/21 11:40:53;;;;;;;6.75;1.92;;;8.80;82.30;;;;;;5009565;28;20018;-77
2022/01/21 11:43:19;;;;;;;8.43;1.88;;;8.80;82.30;;;;;;5010268;28;20034;-77
2022/01/21 11:46:16;;;;;;;6.82;1.65;;;8.80;82.30;;;;;;5028010;28;20037;-76
2022/01/21 11:48:50;;;;;;;6.88;1.60;;;8.80;82.40;;;;;;5027731;28;20029;-77
2022/01/21 11:51:33;;;;;;;7.35;1.58;;;8.80;82.30;;;;;;5027588;28;20025;-76
2022/01/21 11:54:10;;;;;;;5.78;1.65;;;8.80;82.30;;;;;;5010204;28;20088;-75
2022/01/21 11:56:44;;;;;;;5.70;1.65;;;8.80;82.40;;;;;;5028214;28;20488;-76
2022/01/21 11:59:36;;;;;;;7.03;1.83;;;8.80;82.40;;;;;;5010431;28;20045;-75
2022/01/21 12:02:26;;;;;;;6.43;1.45;;;8.80;82.40;;;;;;5009703;28;20033;-77
2022/01/21 12:04:57;;;;;;;7.07;1.73;;;8.80;82.50;;;;;;5011064;28;20034;-76
2022/01/21 12:07:35;;;;;;;7.10;1.60;;;8.80;82.50;;;;;;5013907;28;20030;-76
2022/01/21 12:10:06;;;;;;;5.95;1.52;;;8.70;82.50;;;;;;5014002;28;20044;-75
2022/01/21 12:12:53;;;;;;;7.95;2.25;;;8.70;82.60;;;;;;5013222;28;20073;-75
2022/01/21 12:15:57;;;;;;;7.57;1.63;;;8.70;82.60;;;;;;5031370;28;20022;-76
2022/01/21 12:18:55;;;;;;;6.15;1.77;;;8.80;82.70;;;;;;5027454;28;20042;-77
2022/01/21 12:21:33;;;;;;;6.15;1.65;;;8.80;82.70;;;;;;5013333;28;20029;-76
2022/01/21 12:23:59;;;;;;;8.13;1.55;;;8.80;82.70;;;;;;5013213;28;20040;-77
2022/01/21 12:26:29;;;;;;;5.68;1.80;;;8.80;82.70;;;;;;5031004;28;20029;-76
2022/01/21 12:28:57;;;;;;;6.53;1.77;;;8.80;82.70;;;;;;5013058;28;20030;-77
2022/01/21 12:31:51;;;;;;;7.40;1.85;;;8.80;82.70;;;;;;5012803;28;20033;-76
2022/01/21 12:34:16;;;;;;;6.22;1.50;;;8.80;82.80;;;;;;5030893;28;20014;-76
2022/01/21 12:36:53;;;;;;;5.85;1.90;;;8.80;82.80;;;;;;5012960;28;20645;-75
2022/01/21 12:39:41;;;;;;;4.60;1.40;;;8.70;82.80;;;;;;5030543;28;20022;-76
2022/01/21 12:42:23;;;;;;;6.63;1.70;;;8.70;82.90;;;;;;5012866;28;20121;-76
2022/01/21 12:45:08;;;;;;;5.57;1.67;;;8.70;82.80;;;;;;5030939;28;20025;-77
2022/01/21 12:47:46;;;;;;;7.93;1.60;;;8.70;82.80;;;;;;5012966;28;20030;-76
2022/01/21 12:50:24;;;;;;;7.65;2.30;;;8.70;82.80;;;;;;5012950;28;20090;-76
2022/01/21 12:52:54;;;;;;;6.85;1.67;;;8.70;82.80;;;;;;5012778;28;20037;-77
2022/01/21 12:58:11;;;;;;;8.05;1.90;;;8.70;83.00;;;;;;5031297;28;20507;-76
2022/01/21 13:00:38;;;;;;;6.35;1.67;;;8.70;83.00;;;;;;5012697;28;20029;-77
2022/01/21 13:03:13;;;;;;;8.85;2.53;;;8.70;83.00;;;;;;5012668;28;20037;-74
2022/01/21 13:05:44;;;;;;;7.38;1.63;;;8.70;83.00;;;;;;5012880;28;20489;-76
2022/01/21 13:08:50;;;;;;;8.25;1.52;;;8.70;83.00;;;;;;5012781;28;20078;-77
2022/01/21 13:11:23;;;;;;;6.65;1.58;;;8.70;83.00;;;;;;4949119;29;20031;-76
2022/01/21 13:17:01;;;;;;;8.02;2.20;;;8.70;83.00;;;;;;5013625;28;20108;-77
2022/01/21 13:19:43;;;;;;;6.53;1.77;;;8.70;83.10;;;;;;5030148;28;20475;-77
2022/01/21 13:22:32;;;;;;;6.05;1.50;;;8.70;83.20;;;;;;5012133;28;20408;-76
2022/01/21 13:25:14;;;;;;;7.20;1.80;;;8.70;83.30;;;;;;5030965;28;20445;-76
2022/01/21 13:27:52;;;;;;;6.70;1.70;;;8.70;83.30;;;;;;5012534;28;20029;-76
2022/01/21 13:30:21;;;;;;;6.93;1.77;;;8.70;83.40;;;;;;5012183;28;20500;-76
2022/01/21 13:32:56;;;;;;;6.13;1.80;;;8.70;83.40;;;;;;5011873;28;20029;-77
2022/01/21 13:35:23;;;;;;;6.90;2.20;;;8.70;83.50;;;;;;5030369;28;20021;-77
2022/01/21 13:38:07;;;;;;;5.45;1.58;;;8.70;83.50;;;;;;5012428;28;20408;-76
2022/01/21 13:40:40;;;;;;;7.43;1.50;;;8.70;83.50;;;;;;5011801;28;20021;-76
2022/01/21 13:43:07;;;;;;;7.72;2.10;;;8.70;83.50;;;;;;5030130;28;20481;-75
2022/01/21 13:45:33;;;;;;;10.50;2.00;;;8.70;83.50;;;;;;5012437;28;20110;-76
2022/01/21 13:48:04;;;;;;;9.20;1.70;;;8.70;83.50;;;;;;5012314;28;20105;-75
2022/01/21 13:50:30;;;;;;;7.95;2.00;;;8.70;83.50;;;;;;5011827;28;20039;-76
2022/01/21 13:53:07;;;;;;;5.78;1.55;;;8.70;83.60;;;;;;5011582;28;20515;-78
2022/01/21 13:55:41;;;;;;;6.22;1.70;;;8.70;83.50;;;;;;5011862;28;20074;-77
2022/01/21 13:58:11;;;;;;;13.50;2.60;;;8.70;83.60;;;;;;5011736;28;20024;-77